Pagina principală
METAR-TAF:

METAR-TAF

Aeroporturi :

Eastern Oregon Regional Airport at Pendleton

Pendleton, Oregon, Statele Unite ale Americii

Latitudine: 45-41-54N, longitudine: 118-50-03W, elevație: 455 m

Observații meteo curente

Raportul a fost făcut în urmă cu 37 de minute, la 22:53 UTC
Vânt 6 kt de la Vest/Nord-vest
Temperatură 36°C
Umiditate 12%
Presiune 1018 hPa
Vizibilitate: 16.1 km
Cer senin

METAR: KPDT 192253Z 29006KT 10SM CLR 36/02 A3007 RMK AO2 SLP165 T03560022

Ora: 16:30 (23:30 UTC)

Prognoză

Raportul a fost făcut în urmă cu 10 de minute, la 23:20 UTC
Prognoză valabilă de la 20 ora 00 UTC la 20 ora 24 UTC
Vânt 10 kt de la Vest
Vizibilitate: 10 km
Cer senin
De la 20 ora 0500 UTC
Vânt 6 kt de la Sud-est
Vizibilitate: 10 km
Cer senin
De la 20 ora 1900 UTC
Vânt 6 kt de la Nord/Nord-vest
Vizibilitate: 10 km
Cer senin

TAF: KPDT 192320Z 2000/2024 28010KT P6SM SKC FM200500 14006KT P6SM SKC FM201900 34006KT P6SM SKC

Observații și prognoze meteo pentru peste 4.000 de aeroporturi (rapoarte METAR și TAF).

Stațiile disponibile sunt reprezentate pe hartă prin puncte galbene și roșii.

Țineți indicatorul mouse-ului pe punctul dorit pentru a vedea denumirea stației.

Apoi, faceți clic pentru a vedea observațiile și prognozele meteorologice.

Pentru a schimba harta: Pentru mărire, faceți clic pe butoanele verzi cu cruce neagră; pentru micșorare, pe butonul verde cu o liniuță; pentru hărți învecinate, pe săgețile verzi.


METAR-TAF: